Time;durP1;ratioP1;P1;durP2;ratioP2;P2;SDS_P1;SDS_P2;PMS_P1;PMS_P2;Temp;Humidity;BMP_temperature;BMP_pressure;BME280_temperature;BME280_humidity;BME280_pressure;Samples;Min_cycle;Max_cycle;Signal;HPM_P1;HPM_P2
2022/09/23 00:01:01;;;;;;;4.17;3.77;;;;;;;;;;4981437;28;20536;-57
2022/09/23 00:03:30;;;;;;;4.33;3.93;;;;;;;;;;4993137;28;20803;-57
2022/09/23 00:06:06;;;;;;;6.87;4.17;;;;;;;;;;4983673;28;20803;-59
2022/09/23 00:08:32;;;;;;;4.60;3.70;;;;;;;;;;4978136;28;20527;-57
2022/09/23 00:11:03;;;;;;;3.90;3.20;;;;;;;;;;4967941;28;21292;-58
2022/09/23 00:13:29;;;;;;;3.60;3.10;;;;;;;;;;4959590;28;20485;-57
2022/09/23 00:15:55;;;;;;;4.57;3.43;;;;;;;;;;4958752;28;20440;-58
2022/09/23 00:18:23;;;;;;;4.40;3.57;;;;;;;;;;4965623;28;20958;-57
2022/09/23 00:20:51;;;;;;;10.17;5.23;;;;;;;;;;4975062;28;20440;-57
2022/09/23 00:23:18;;;;;;;6.40;3.80;;;;;;;;;;4960485;28;21113;-57
2022/09/23 00:25:44;;;;;;;4.23;3.57;;;;;;;;;;4989557;28;20445;-57
2022/09/23 00:28:10;;;;;;;6.20;3.60;;;;;;;;;;4966602;28;20806;-57
2022/09/23 00:30:36;;;;;;;5.40;4.90;;;;;;;;;;4969686;28;24322;-58
2022/09/23 00:33:06;;;;;;;4.50;3.90;;;;;;;;;;4953553;28;20638;-57
2022/09/23 00:35:33;;;;;;;4.43;4.00;;;;;;;;;;4970815;28;20488;-56
2022/09/23 00:37:59;;;;;;;4.67;3.30;;;;;;;;;;4974500;28;20471;-57
2022/09/23 00:40:25;;;;;;;6.73;4.20;;;;;;;;;;4983352;28;20441;-58
2022/09/23 00:42:51;;;;;;;5.13;4.10;;;;;;;;;;4967792;28;20453;-58
2022/09/23 00:45:17;;;;;;;4.40;4.00;;;;;;;;;;4979540;28;20479;-57
2022/09/23 00:47:44;;;;;;;3.90;3.50;;;;;;;;;;4923757;28;20429;-57
2022/09/23 00:50:22;;;;;;;4.17;3.77;;;;;;;;;;4975472;28;21008;-57
2022/09/23 00:52:48;;;;;;;4.73;3.53;;;;;;;;;;4953218;28;20809;-56
2022/09/23 00:55:19;;;;;;;4.70;3.90;;;;;;;;;;4977250;28;20437;-55
2022/09/23 00:57:45;;;;;;;4.83;3.60;;;;;;;;;;4949166;28;20529;-57
2022/09/23 01:00:11;;;;;;;4.23;3.73;;;;;;;;;;4970265;28;20528;-57
2022/09/23 01:02:38;;;;;;;5.70;4.20;;;;;;;;;;4955264;28;20982;-56
2022/09/23 01:05:04;;;;;;;4.03;3.23;;;;;;;;;;4982143;28;20445;-58
2022/09/23 01:07:30;;;;;;;3.70;3.17;;;;;;;;;;4971569;28;20644;-57
2022/09/23 01:10:13;;;;;;;5.83;4.00;;;;;;;;;;4970970;28;20541;-60
2022/09/23 01:12:51;;;;;;;3.90;3.50;;;;;;;;;;4959087;28;20484;-58
2022/09/23 01:15:37;;;;;;;4.63;3.87;;;;;;;;;;4978065;28;20436;-58
2022/09/23 01:18:10;;;;;;;4.20;3.50;;;;;;;;;;4937116;28;20482;-58
2022/09/23 01:20:54;;;;;;;5.90;2.60;;;;;;;;;;4980271;28;20437;-57
2022/09/23 01:23:33;;;;;;;3.40;3.10;;;;;;;;;;4958916;28;20448;-56
2022/09/23 01:26:08;;;;;;;4.03;3.63;;;;;;;;;;4975569;28;20441;-57
2022/09/23 01:28:42;;;;;;;5.63;4.40;;;;;;;;;;4968885;28;20447;-59
2022/09/23 01:31:16;;;;;;;4.27;3.87;;;;;;;;;;4977275;28;21380;-57
2022/09/23 01:33:42;;;;;;;5.83;3.80;;;;;;;;;;4950139;28;21040;-55
2022/09/23 01:36:24;;;;;;;4.03;3.57;;;;;;;;;;4986516;28;20440;-57
2022/09/23 01:38:57;;;;;;;4.53;3.50;;;;;;;;;;4975916;28;20441;-54
2022/09/23 01:41:36;;;;;;;5.17;4.10;;;;;;;;;;4978589;28;20429;-56
2022/09/23 01:44:05;;;;;;;6.07;3.53;;;;;;;;;;4966304;28;20461;-56
2022/09/23 01:46:32;;;;;;;4.80;4.10;;;;;;;;;;4975123;28;20444;-59
2022/09/23 01:49:18;;;;;;;5.00;3.60;;;;;;;;;;4960038;28;24726;-59
2022/09/23 01:51:46;;;;;;;4.00;3.50;;;;;;;;;;4975132;28;20488;-57
2022/09/23 01:54:32;;;;;;;3.47;3.07;;;;;;;;;;4979657;28;20464;-58
2022/09/23 01:57:09;;;;;;;6.70;3.93;;;;;;;;;;4983995;28;20474;-57
2022/09/23 01:59:55;;;;;;;6.90;3.90;;;;;;;;;;4957709;28;20604;-57
2022/09/23 02:02:32;;;;;;;4.87;4.30;;;;;;;;;;4973834;28;20436;-57
2022/09/23 02:05:09;;;;;;;3.80;3.47;;;;;;;;;;4952768;28;20467;-57
2022/09/23 02:07:42;;;;;;;5.20;4.00;;;;;;;;;;4977510;28;20997;-57
2022/09/23 02:10:12;;;;;;;4.20;3.30;;;;;;;;;;4956833;28;20522;-58
2022/09/23 02:12:39;;;;;;;5.13;4.10;;;;;;;;;;4973016;28;20552;-59
2022/09/23 02:15:05;;;;;;;5.90;3.50;;;;;;;;;;4971890;28;20955;-59
2022/09/23 02:17:37;;;;;;;4.03;3.50;;;;;;;;;;4962684;28;21359;-57
2022/09/23 02:20:04;;;;;;;4.80;3.23;;;;;;;;;;4981808;28;20488;-59
2022/09/23 02:22:34;;;;;;;3.83;3.33;;;;;;;;;;4971142;28;20496;-57
2022/09/23 02:25:02;;;;;;;4.23;2.87;;;;;;;;;;4979460;28;20470;-58
2022/09/23 02:27:43;;;;;;;7.40;3.23;;;;;;;;;;4974656;28;20938;-58
2022/09/23 02:30:14;;;;;;;3.53;2.90;;;;;;;;;;4966788;28;20447;-58
2022/09/23 02:32:52;;;;;;;4.67;2.80;;;;;;;;;;4975726;28;20476;-58
2022/09/23 02:35:21;;;;;;;3.47;3.00;;;;;;;;;;4960371;28;20977;-57
2022/09/23 02:38:06;;;;;;;3.57;3.03;;;;;;;;;;4974737;28;20430;-57
2022/09/23 02:40:46;;;;;;;4.93;3.20;;;;;;;;;;4979052;28;20499;-58
2022/09/23 02:43:19;;;;;;;4.90;2.80;;;;;;;;;;4973521;28;20429;-57
2022/09/23 02:45:45;;;;;;;4.10;3.47;;;;;;;;;;4977593;28;20459;-57
2022/09/23 02:48:18;;;;;;;3.27;2.97;;;;;;;;;;4964678;28;20677;-58
2022/09/23 02:50:46;;;;;;;6.13;3.53;;;;;;;;;;4977469;28;20438;-58
2022/09/23 02:53:14;;;;;;;7.00;3.60;;;;;;;;;;4973526;28;21040;-56
2022/09/23 02:55:41;;;;;;;4.10;3.70;;;;;;;;;;4977626;28;20449;-57
2022/09/23 02:58:08;;;;;;;3.90;3.17;;;;;;;;;;4973837;28;20442;-57
2022/09/23 03:00:49;;;;;;;3.87;3.57;;;;;;;;;;4955610;28;20452;-57
2022/09/23 03:03:27;;;;;;;4.23;3.20;;;;;;;;;;4978296;28;20850;-57
2022/09/23 03:05:53;;;;;;;3.93;3.23;;;;;;;;;;4967176;28;20975;-57
2022/09/23 03:08:41;;;;;;;3.33;3.03;;;;;;;;;;4983011;28;20430;-58
2022/09/23 03:11:12;;;;;;;4.67;3.43;;;;;;;;;;4958065;28;20441;-56
2022/09/23 03:13:53;;;;;;;5.00;3.57;;;;;;;;;;4972531;28;20486;-58
2022/09/23 03:16:26;;;;;;;2.83;2.53;;;;;;;;;;4977147;28;20814;-59
2022/09/23 03:18:55;;;;;;;4.20;3.17;;;;;;;;;;4974493;28;20436;-59
2022/09/23 03:21:26;;;;;;;4.10;3.70;;;;;;;;;;4972439;28;20453;-57
2022/09/23 03:24:21;;;;;;;3.67;3.27;;;;;;;;;;4980667;28;20634;-58
2022/09/23 03:26:47;;;;;;;3.20;3.00;;;;;;;;;;4982704;28;20431;-57
2022/09/23 03:29:13;;;;;;;3.53;2.90;;;;;;;;;;4972504;28;20508;-58
2022/09/23 03:31:41;;;;;;;3.80;3.07;;;;;;;;;;4954234;28;20445;-58
2022/09/23 03:34:09;;;;;;;6.90;2.90;;;;;;;;;;4981074;28;20448;-57
2022/09/23 03:36:52;;;;;;;3.60;3.30;;;;;;;;;;4956133;28;20859;-58
2022/09/23 03:39:51;;;;;;;3.20;2.50;;;;;;;;;;4981374;28;20421;-59
2022/09/23 03:42:22;;;;;;;3.10;2.80;;;;;;;;;;4975787;28;20503;-58
2022/09/23 03:44:49;;;;;;;3.50;3.07;;;;;;;;;;4972623;28;20503;-59
2022/09/23 03:47:15;;;;;;;4.13;2.90;;;;;;;;;;4971348;28;20440;-58
2022/09/23 03:49:46;;;;;;;4.30;3.67;;;;;;;;;;4968048;28;20537;-58
2022/09/23 03:52:13;;;;;;;4.77;3.30;;;;;;;;;;4970737;28;20491;-57
2022/09/23 03:54:43;;;;;;;3.73;3.33;;;;;;;;;;4971297;28;20437;-58
2022/09/23 03:57:15;;;;;;;3.93;3.33;;;;;;;;;;4967134;28;20547;-58
2022/09/23 03:59:42;;;;;;;4.77;2.93;;;;;;;;;;4980855;28;20449;-59
2022/09/23 04:02:08;;;;;;;4.70;3.13;;;;;;;;;;4949069;28;20455;-58
2022/09/23 04:04:35;;;;;;;3.70;2.97;;;;;;;;;;4970972;28;21541;-58
2022/09/23 04:07:01;;;;;;;6.17;3.93;;;;;;;;;;4955602;28;20441;-58
2022/09/23 04:09:27;;;;;;;3.13;2.83;;;;;;;;;;4971504;28;20539;-56
2022/09/23 04:11:53;;;;;;;4.80;3.73;;;;;;;;;;4951069;28;20929;-56
2022/09/23 04:14:32;;;;;;;6.77;3.43;;;;;;;;;;4977041;28;20531;-58
2022/09/23 04:16:58;;;;;;;3.57;2.73;;;;;;;;;;4974159;28;20472;-57
2022/09/23 04:19:24;;;;;;;3.00;2.70;;;;;;;;;;4985620;28;20441;-57
2022/09/23 04:21:50;;;;;;;6.10;3.53;;;;;;;;;;4958510;28;20592;-58
2022/09/23 04:24:16;;;;;;;5.13;3.50;;;;;;;;;;4974031;28;20900;-58
2022/09/23 04:26:42;;;;;;;4.07;3.07;;;;;;;;;;4940365;28;20472;-58
2022/09/23 04:29:10;;;;;;;5.37;3.83;;;;;;;;;;4982670;28;21065;-60
2022/09/23 04:31:37;;;;;;;5.57;3.60;;;;;;;;;;4965649;28;20478;-58
2022/09/23 04:34:03;;;;;;;5.83;3.60;;;;;;;;;;4981015;28;20456;-57
2022/09/23 04:36:29;;;;;;;7.47;4.23;;;;;;;;;;4971350;28;20879;-58
2022/09/23 04:38:55;;;;;;;5.23;4.17;;;;;;;;;;4967819;28;20433;-58
2022/09/23 04:41:21;;;;;;;6.03;2.90;;;;;;;;;;4961525;28;20450;-58
2022/09/23 04:43:47;;;;;;;3.67;3.33;;;;;;;;;;4985471;28;20499;-57
2022/09/23 04:46:14;;;;;;;5.13;3.00;;;;;;;;;;4948946;28;20476;-57
2022/09/23 04:48:40;;;;;;;3.77;3.33;;;;;;;;;;4974360;28;20795;-58
2022/09/23 04:51:07;;;;;;;3.13;2.73;;;;;;;;;;4958616;28;20850;-57
2022/09/23 04:53:34;;;;;;;4.27;2.63;;;;;;;;;;4973684;28;20495;-56
2022/09/23 04:56:07;;;;;;;4.40;3.40;;;;;;;;;;4957002;28;20445;-57
2022/09/23 04:58:44;;;;;;;;;;;;;;;;;;;;;
2022/09/23 05:01:12;;;;;;;3.70;2.90;;;;;;;;;;4957815;28;20467;-58
2022/09/23 05:04:02;;;;;;;4.20;3.63;;;;;;;;;;4984346;28;20465;-58
2022/09/23 05:06:34;;;;;;;4.07;3.20;;;;;;;;;;4970447;28;20433;-58
2022/09/23 05:09:00;;;;;;;3.90;3.50;;;;;;;;;;4967831;28;20437;-57
2022/09/23 05:11:31;;;;;;;8.20;5.73;;;;;;;;;;4981307;28;20671;-57
2022/09/23 05:13:57;;;;;;;4.40;4.00;;;;;;;;;;4975163;28;20544;-58
2022/09/23 05:16:23;;;;;;;4.10;3.00;;;;;;;;;;4980361;28;20428;-58
2022/09/23 05:18:49;;;;;;;5.07;3.43;;;;;;;;;;4971004;28;21130;-58
2022/09/23 05:21:16;;;;;;;3.80;3.00;;;;;;;;;;4976567;28;20969;-58
2022/09/23 05:23:42;;;;;;;3.97;3.17;;;;;;;;;;4975566;28;20492;-58
2022/09/23 05:26:11;;;;;;;7.73;3.90;;;;;;;;;;4966998;28;20469;-58
2022/09/23 05:28:38;;;;;;;6.80;3.20;;;;;;;;;;4975409;28;21127;-56
2022/09/23 05:31:04;;;;;;;3.17;2.77;;;;;;;;;;4981139;28;20491;-58
2022/09/23 05:34:26;;;;;;;3.60;3.20;;;;;;;;;;4981984;28;20592;-57
2022/09/23 05:36:54;;;;;;;11.47;3.30;;;;;;;;;;4958043;28;20437;-58
2022/09/23 05:39:45;;;;;;;3.80;3.50;;;;;;;;;;4987114;28;20506;-60
2022/09/23 05:42:29;;;;;;;4.77;3.50;;;;;;;;;;4991609;28;21004;-58
2022/09/23 05:44:55;;;;;;;5.53;2.70;;;;;;;;;;4979832;28;20536;-59
2022/09/23 05:47:26;;;;;;;4.03;3.17;;;;;;;;;;4978940;28;20483;-58
2022/09/23 05:49:53;;;;;;;3.17;2.80;;;;;;;;;;4972448;28;21063;-58
2022/09/23 05:52:19;;;;;;;4.60;3.00;;;;;;;;;;4977112;28;20487;-58
2022/09/23 05:54:51;;;;;;;6.60;3.43;;;;;;;;;;4991602;28;20436;-59
2022/09/23 05:57:20;;;;;;;4.77;3.80;;;;;;;;;;4977784;28;20441;-58
2022/09/23 05:59:47;;;;;;;4.27;3.23;;;;;;;;;;4983527;28;20432;-58
2022/09/23 06:02:15;;;;;;;5.20;4.43;;;;;;;;;;4980759;28;20437;-58
2022/09/23 06:04:54;;;;;;;5.33;3.30;;;;;;;;;;4969048;28;20440;-62
2022/09/23 06:07:26;;;;;;;4.97;4.47;;;;;;;;;;4972800;28;20445;-59
2022/09/23 06:09:53;;;;;;;5.60;3.47;;;;;;;;;;4969065;28;20499;-61
2022/09/23 06:12:20;;;;;;;5.63;3.67;;;;;;;;;;4942682;28;20486;-58
2022/09/23 06:14:47;;;;;;;5.63;4.17;;;;;;;;;;4979494;28;20503;-58
2022/09/23 06:17:13;;;;;;;4.70;3.70;;;;;;;;;;4994891;28;20453;-57
2022/09/23 06:19:39;;;;;;;5.63;4.80;;;;;;;;;;4976002;28;20425;-58
2022/09/23 06:22:05;;;;;;;6.53;4.00;;;;;;;;;;4955556;28;20453;-59
2022/09/23 06:24:31;;;;;;;5.40;4.23;;;;;;;;;;4982157;28;20309;-57
2022/09/23 06:26:57;;;;;;;5.90;4.63;;;;;;;;;;4985884;28;22627;-57
2022/09/23 06:29:23;;;;;;;8.13;4.20;;;;;;;;;;4982799;28;20439;-57
2022/09/23 06:31:49;;;;;;;4.23;3.83;;;;;;;;;;4982796;28;20484;-57
2022/09/23 06:34:18;;;;;;;4.83;4.40;;;;;;;;;;5007282;28;20445;-56
2022/09/23 06:36:48;;;;;;;5.17;4.60;;;;;;;;;;4981192;28;21437;-57
2022/09/23 06:39:15;;;;;;;5.90;5.30;;;;;;;;;;4982887;28;20468;-56
2022/09/23 06:42:12;;;;;;;4.30;3.73;;;;;;;;;;4986106;28;20472;-57
2022/09/23 06:44:45;;;;;;;8.57;4.90;;;;;;;;;;4991829;28;20508;-58
2022/09/23 06:47:11;;;;;;;10.43;4.20;;;;;;;;;;4984654;28;20801;-57
2022/09/23 06:49:38;;;;;;;4.87;4.37;;;;;;;;;;4960623;28;20494;-58
2022/09/23 06:52:05;;;;;;;6.20;5.07;;;;;;;;;;4988693;28;20518;-58
2022/09/23 06:54:31;;;;;;;4.90;4.17;;;;;;;;;;4955947;28;21356;-58
2022/09/23 06:56:59;;;;;;;5.10;3.67;;;;;;;;;;4993595;28;20487;-59
2022/09/23 06:59:27;;;;;;;6.50;4.60;;;;;;;;;;4985385;28;20959;-58
2022/09/23 07:01:53;;;;;;;4.80;4.20;;;;;;;;;;4986271;28;20437;-58
2022/09/23 07:04:20;;;;;;;4.53;3.53;;;;;;;;;;4984859;28;20442;-57
2022/09/23 07:06:45;;;;;;;5.17;3.60;;;;;;;;;;4985041;28;20437;-59
2022/09/23 07:12:31;;;;;;;4.70;3.20;;;;;;;;;;4963132;28;20534;-58
2022/09/23 07:15:32;;;;;;;4.80;2.90;;;;;;;;;;4987566;28;20445;-59
2022/09/23 07:18:06;;;;;;;4.00;3.30;;;;;;;;;;4989931;28;20537;-57
2022/09/23 07:20:42;;;;;;;5.57;4.07;;;;;;;;;;4991768;28;20441;-56
2022/09/23 07:23:08;;;;;;;4.00;3.43;;;;;;;;;;4986124;28;20440;-57
2022/09/23 07:25:45;;;;;;;4.10;3.70;;;;;;;;;;4981039;28;20554;-56
2022/09/23 07:28:11;;;;;;;4.33;3.40;;;;;;;;;;4986955;28;20517;-57
2022/09/23 07:30:37;;;;;;;6.57;3.47;;;;;;;;;;4984841;28;20521;-59
2022/09/23 07:33:03;;;;;;;3.23;2.90;;;;;;;;;;4987719;28;20503;-59
2022/09/23 07:35:40;;;;;;;4.10;3.30;;;;;;;;;;4982573;28;20441;-59
2022/09/23 07:38:07;;;;;;;5.77;3.20;;;;;;;;;;4986066;28;20436;-58
2022/09/23 07:40:42;;;;;;;3.47;2.47;;;;;;;;;;4992427;28;20437;-58
2022/09/23 07:43:31;;;;;;;2.87;2.67;;;;;;;;;;4973191;28;21024;-56
2022/09/23 07:46:15;;;;;;;3.70;2.90;;;;;;;;;;4973895;28;20444;-58
2022/09/23 07:48:41;;;;;;;4.67;2.93;;;;;;;;;;4989867;28;21016;-58
2022/09/23 07:51:07;;;;;;;3.97;2.50;;;;;;;;;;4980235;28;20436;-59
2022/09/23 07:53:37;;;;;;;2.80;2.50;;;;;;;;;;4989766;28;21289;-57
2022/09/23 07:56:15;;;;;;;2.77;2.50;;;;;;;;;;4983211;28;20453;-56
2022/09/23 07:58:41;;;;;;;3.43;2.33;;;;;;;;;;4983560;28;20484;-59
2022/09/23 08:01:09;;;;;;;3.80;2.83;;;;;;;;;;4965630;28;20437;-58
2022/09/23 08:04:04;;;;;;;4.60;2.70;;;;;;;;;;4978415;28;20430;-59
2022/09/23 08:06:30;;;;;;;4.20;2.67;;;;;;;;;;4981367;28;20548;-57
2022/09/23 08:09:08;;;;;;;2.90;2.33;;;;;;;;;;4968510;28;20978;-58
2022/09/23 08:11:40;;;;;;;2.60;2.30;;;;;;;;;;4989195;28;20460;-56
2022/09/23 08:14:21;;;;;;;3.70;2.43;;;;;;;;;;4977739;28;20444;-58
2022/09/23 08:16:47;;;;;;;2.60;2.13;;;;;;;;;;4966553;28;20453;-56
2022/09/23 08:19:13;;;;;;;2.77;2.20;;;;;;;;;;4977154;28;20424;-57
2022/09/23 08:21:53;;;;;;;3.10;1.97;;;;;;;;;;4983990;28;20450;-56
2022/09/23 08:24:54;;;;;;;4.03;2.50;;;;;;;;;;4976252;28;20464;-59
2022/09/23 08:27:21;;;;;;;2.53;2.23;;;;;;;;;;4981610;28;20440;-53
2022/09/23 08:29:47;;;;;;;3.00;2.40;;;;;;;;;;4974450;28;21978;-58
2022/09/23 08:32:13;;;;;;;2.37;2.17;;;;;;;;;;4980913;28;20482;-55
2022/09/23 08:34:39;;;;;;;3.07;1.97;;;;;;;;;;4961479;28;21017;-56
2022/09/23 08:37:09;;;;;;;4.50;2.60;;;;;;;;;;4983770;28;20436;-55
2022/09/23 08:39:35;;;;;;;4.37;2.97;;;;;;;;;;4976429;28;20476;-55
2022/09/23 08:42:04;;;;;;;3.17;2.50;;;;;;;;;;4987394;28;20461;-57
2022/09/23 08:44:42;;;;;;;3.37;2.43;;;;;;;;;;4959470;28;20453;-59
2022/09/23 08:47:09;;;;;;;2.67;2.10;;;;;;;;;;4980724;28;20940;-61
2022/09/23 08:50:03;;;;;;;3.17;2.70;;;;;;;;;;4981781;28;20534;-57
2022/09/23 08:52:44;;;;;;;3.43;2.53;;;;;;;;;;5005112;28;20485;-56
2022/09/23 08:55:11;;;;;;;2.60;2.23;;;;;;;;;;4973307;28;20445;-58
2022/09/23 08:57:56;;;;;;;3.70;2.97;;;;;;;;;;4980573;28;20432;-54
2022/09/23 09:00:22;;;;;;;2.63;2.20;;;;;;;;;;4972584;28;20890;-57
2022/09/23 09:02:49;;;;;;;3.03;2.63;;;;;;;;;;4980289;28;20444;-57
2022/09/23 09:05:16;;;;;;;4.90;2.33;;;;;;;;;;4969534;28;20453;-55
2022/09/23 09:07:42;;;;;;;6.57;2.90;;;;;;;;;;4982907;28;20436;-55
2022/09/23 09:10:19;;;;;;;7.07;2.43;;;;;;;;;;4976878;28;20480;-56
2022/09/23 09:12:46;;;;;;;3.50;2.83;;;;;;;;;;4982142;28;20539;-55
2022/09/23 09:15:16;;;;;;;3.60;2.77;;;;;;;;;;4976537;28;20555;-55
2022/09/23 09:17:51;;;;;;;3.20;2.60;;;;;;;;;;4981949;28;20441;-58
2022/09/23 09:20:24;;;;;;;2.93;2.63;;;;;;;;;;4968506;28;20450;-58
2022/09/23 09:22:52;;;;;;;2.30;2.00;;;;;;;;;;4980588;28;20432;-57
2022/09/23 09:25:27;;;;;;;3.40;2.23;;;;;;;;;;4974018;28;20523;-56
2022/09/23 09:27:54;;;;;;;3.00;2.70;;;;;;;;;;4984981;28;20441;-59
2022/09/23 09:30:20;;;;;;;3.17;2.30;;;;;;;;;;4959461;28;21114;-59
2022/09/23 09:32:47;;;;;;;3.67;2.30;;;;;;;;;;4974460;28;20473;-56
2022/09/23 09:35:42;;;;;;;5.13;2.50;;;;;;;;;;4984840;28;20443;-62
2022/09/23 09:38:08;;;;;;;3.23;2.57;;;;;;;;;;4974088;28;20452;-57
2022/09/23 09:40:34;;;;;;;9.73;2.83;;;;;;;;;;4958740;28;21104;-57
2022/09/23 09:43:04;;;;;;;2.40;2.10;;;;;;;;;;4987073;28;20433;-58
2022/09/23 09:45:39;;;;;;;4.47;2.43;;;;;;;;;;4962490;28;20459;-59
2022/09/23 09:48:16;;;;;;;3.33;2.53;;;;;;;;;;4990662;28;20453;-59
2022/09/23 09:50:42;;;;;;;4.90;2.17;;;;;;;;;;4985741;28;20449;-59
2022/09/23 09:53:38;;;;;;;3.03;2.67;;;;;;;;;;4997842;28;20507;-59
2022/09/23 09:56:16;;;;;;;3.27;2.53;;;;;;;;;;4991564;28;20433;-59
2022/09/23 09:59:05;;;;;;;8.20;2.33;;;;;;;;;;4994180;28;20448;-57
2022/09/23 10:01:43;;;;;;;2.13;1.93;;;;;;;;;;4980479;28;20444;-58
2022/09/23 10:07:16;;;;;;;2.73;2.20;;;;;;;;;;4988672;28;20509;-59
2022/09/23 10:09:49;;;;;;;3.30;2.00;;;;;;;;;;4966308;28;21041;-56
2022/09/23 10:12:17;;;;;;;4.33;2.30;;;;;;;;;;4984989;28;20667;-59
2022/09/23 10:14:43;;;;;;;3.03;2.53;;;;;;;;;;4984300;28;20433;-58
2022/09/23 10:17:39;;;;;;;3.80;2.30;;;;;;;;;;4987673;28;20449;-59
2022/09/23 10:20:37;;;;;;;2.53;2.13;;;;;;;;;;4978969;28;20445;-57
2022/09/23 10:23:21;;;;;;;3.30;2.00;;;;;;;;;;4992625;28;20436;-58
2022/09/23 10:26:11;;;;;;;3.40;2.47;;;;;;;;;;4969925;28;20433;-57
2022/09/23 10:28:46;;;;;;;2.33;1.90;;;;;;;;;;4982512;28;20463;-57
2022/09/23 10:31:24;;;;;;;3.53;2.20;;;;;;;;;;4968881;28;20516;-55
2022/09/23 10:33:54;;;;;;;3.73;2.37;;;;;;;;;;4981128;28;20469;-57
2022/09/23 10:36:20;;;;;;;3.07;2.03;;;;;;;;;;4974387;28;20473;-58
2022/09/23 10:47:44;;;;;;;4.90;2.90;;;;;;;;;;4985955;28;21072;-57
2022/09/23 10:53:32;;;;;;;5.50;3.63;;;;;;;;;;4988359;28;20502;-58
2022/09/23 10:56:32;;;;;;;5.60;3.27;;;;;;;;;;4978869;28;20991;-60
2022/09/23 10:59:00;;;;;;;4.33;2.70;;;;;;;;;;4986144;28;20464;-59
2022/09/23 11:01:38;;;;;;;5.07;2.60;;;;;;;;;;4984829;28;20456;-60
2022/09/23 11:04:08;;;;;;;3.53;2.40;;;;;;;;;;4986543;28;20444;-58
2022/09/23 11:06:52;;;;;;;5.93;3.40;;;;;;;;;;4994299;28;20442;-58
2022/09/23 11:09:39;;;;;;;4.57;2.47;;;;;;;;;;4987008;28;20838;-58
2022/09/23 11:12:20;;;;;;;5.70;2.90;;;;;;;;;;4968257;28;20998;-58
2022/09/23 11:15:06;;;;;;;4.43;3.07;;;;;;;;;;4967909;28;20429;-58
2022/09/23 11:17:56;;;;;;;3.87;2.70;;;;;;;;;;4944325;28;20449;-58
2022/09/23 11:20:46;;;;;;;5.27;3.90;;;;;;;;;;4964007;28;20428;-57
2022/09/23 11:26:37;;;;;;;4.73;3.60;;;;;;;;;;4971090;28;20459;-56
2022/09/23 11:29:03;;;;;;;3.70;3.20;;;;;;;;;;4948947;28;20442;-56
2022/09/23 11:31:36;;;;;;;5.23;3.80;;;;;;;;;;4988433;28;20448;-55
2022/09/23 11:34:29;;;;;;;5.73;4.17;;;;;;;;;;4978903;28;20569;-57
2022/09/23 11:37:04;;;;;;;6.77;3.17;;;;;;;;;;4967921;28;20433;-59
2022/09/23 11:39:51;;;;;;;4.60;3.37;;;;;;;;;;4980002;28;20485;-57
2022/09/23 11:42:22;;;;;;;4.33;3.90;;;;;;;;;;4985353;28;20529;-60
2022/09/23 11:44:54;;;;;;;4.00;3.60;;;;;;;;;;4967180;28;20445;-58
2022/09/23 11:47:28;;;;;;;4.70;3.67;;;;;;;;;;4984291;28;20484;-57
2022/09/23 11:50:06;;;;;;;5.43;3.10;;;;;;;;;;4960094;28;20446;-59
2022/09/23 11:52:41;;;;;;;5.03;3.50;;;;;;;;;;4970397;28;20551;-58
2022/09/23 11:55:16;;;;;;;6.53;5.43;;;;;;;;;;4965544;28;20452;-57
2022/09/23 11:57:45;;;;;;;5.50;3.90;;;;;;;;;;4977536;28;20430;-59
2022/09/23 12:00:31;;;;;;;5.20;4.00;;;;;;;;;;4978581;28;20436;-60
2022/09/23 12:03:22;;;;;;;5.90;4.50;;;;;;;;;;4983005;28;20449;-59
2022/09/23 12:06:11;;;;;;;6.00;4.53;;;;;;;;;;4962940;28;20468;-61
2022/09/23 12:08:47;;;;;;;3.80;3.40;;;;;;;;;;4994638;28;20520;-58
2022/09/23 12:11:25;;;;;;;4.30;3.70;;;;;;;;;;4956003;28;20443;-59
2022/09/23 12:14:08;;;;;;;3.77;3.37;;;;;;;;;;4980966;28;20872;-58
2022/09/23 12:16:38;;;;;;;4.00;3.60;;;;;;;;;;4970184;28;20517;-60
2022/09/23 12:19:13;;;;;;;6.27;2.83;;;;;;;;;;4982797;28;20425;-60
2022/09/23 12:21:39;;;;;;;8.30;4.00;;;;;;;;;;4980998;28;20835;-59
2022/09/23 12:24:13;;;;;;;4.73;4.27;;;;;;;;;;4977946;28;20442;-58
2022/09/23 12:26:40;;;;;;;5.13;3.93;;;;;;;;;;4957503;28;20471;-60
2022/09/23 12:29:07;;;;;;;5.00;4.60;;;;;;;;;;4983186;28;20449;-58
2022/09/23 12:31:35;;;;;;;5.97;4.20;;;;;;;;;;4956745;28;20441;-57
2022/09/23 12:34:07;;;;;;;5.23;4.00;;;;;;;;;;4979851;28;20479;-57
2022/09/23 12:36:34;;;;;;;5.80;4.43;;;;;;;;;;4982839;28;20434;-59
2022/09/23 12:39:03;;;;;;;5.00;4.13;;;;;;;;;;4985573;28;20428;-59
2022/09/23 12:41:50;;;;;;;;;;;;;;;;;;;;;
2022/09/23 12:47:50;;;;;;;4.63;4.20;;;;;;;;;;4993286;28;20433;-61
2022/09/23 12:50:43;;;;;;;4.90;4.17;;;;;;;;;;4969296;28;20953;-60
2022/09/23 12:53:34;;;;;;;7.40;3.83;;;;;;;;;;4983231;28;20478;-59
2022/09/23 12:56:25;;;;;;;7.20;4.57;;;;;;;;;;4986183;28;20448;-57
2022/09/23 12:59:18;;;;;;;5.77;5.17;;;;;;;;;;4986122;28;21016;-57
2022/09/23 13:01:47;;;;;;;5.17;4.00;;;;;;;;;;4972356;28;20525;-58
2022/09/23 13:07:26;;;;;;;5.63;5.10;;;;;;;;;;4974725;28;20531;-57
2022/09/23 13:10:24;;;;;;;5.30;4.73;;;;;;;;;;4986262;28;20439;-58
2022/09/23 13:12:51;;;;;;;5.27;4.03;;;;;;;;;;4981530;28;20962;-57
2022/09/23 13:15:53;;;;;;;6.67;4.70;;;;;;;;;;4992707;28;20457;-58
2022/09/23 13:18:28;;;;;;;5.40;4.60;;;;;;;;;;4987890;28;20425;-58
2022/09/23 13:21:00;;;;;;;6.53;4.90;;;;;;;;;;4979018;28;21044;-57
2022/09/23 13:23:31;;;;;;;6.20;4.73;;;;;;;;;;4988724;28;20429;-60
2022/09/23 13:26:01;;;;;;;5.43;4.93;;;;;;;;;;4982616;28;20441;-58
2022/09/23 13:28:45;;;;;;;8.00;5.10;;;;;;;;;;4986446;28;20425;-60
2022/09/23 13:31:16;;;;;;;6.77;5.20;;;;;;;;;;4967675;28;20444;-60
2022/09/23 13:33:48;;;;;;;6.37;5.13;;;;;;;;;;4986910;28;20481;-58
2022/09/23 13:36:17;;;;;;;5.73;4.63;;;;;;;;;;4961089;28;20441;-60
2022/09/23 13:38:45;;;;;;;11.13;5.17;;;;;;;;;;4968282;28;20464;-58
2022/09/23 13:41:21;;;;;;;4.33;3.93;;;;;;;;;;4978327;28;20552;-58
2022/09/23 13:43:48;;;;;;;4.83;3.67;;;;;;;;;;4964096;28;20989;-60
2022/09/23 13:46:19;;;;;;;8.53;4.67;;;;;;;;;;4978084;28;20484;-59
2022/09/23 13:49:19;;;;;;;4.83;4.40;;;;;;;;;;4984363;28;20453;-57
2022/09/23 13:51:45;;;;;;;8.50;5.17;;;;;;;;;;4983044;28;20461;-59
2022/09/23 13:54:35;;;;;;;4.73;3.33;;;;;;;;;;4978776;28;21038;-60
2022/09/23 13:57:01;;;;;;;5.67;3.90;;;;;;;;;;4969215;28;20331;-59
2022/09/23 13:59:31;;;;;;;5.37;3.80;;;;;;;;;;4979944;28;20475;-59
2022/09/23 14:02:10;;;;;;;4.50;3.50;;;;;;;;;;4979791;28;22405;-59
2022/09/23 14:04:41;;;;;;;9.53;4.20;;;;;;;;;;4983900;28;20430;-60
2022/09/23 14:07:08;;;;;;;4.63;3.73;;;;;;;;;;4976715;28;20479;-59
2022/09/23 14:09:34;;;;;;;4.70;4.20;;;;;;;;;;4981344;28;20429;-58
2022/09/23 14:12:00;;;;;;;4.40;3.33;;;;;;;;;;4979923;28;20456;-58
2022/09/23 14:14:27;;;;;;;5.27;4.40;;;;;;;;;;4979428;28;20445;-59
2022/09/23 14:16:53;;;;;;;3.87;3.27;;;;;;;;;;4969740;28;20484;-59
2022/09/23 14:19:20;;;;;;;4.90;3.67;;;;;;;;;;4973766;28;20943;-56
2022/09/23 14:21:55;;;;;;;6.03;3.70;;;;;;;;;;4994605;28;20499;-58
2022/09/23 14:24:33;;;;;;;7.80;4.63;;;;;;;;;;4988909;28;20456;-58
2022/09/23 14:27:01;;;;;;;6.10;4.07;;;;;;;;;;4970331;28;20515;-59
2022/09/23 14:29:28;;;;;;;5.17;3.73;;;;;;;;;;4976661;28;20449;-57
2022/09/23 14:31:59;;;;;;;6.10;3.50;;;;;;;;;;4969952;28;20444;-58
2022/09/23 14:34:38;;;;;;;6.10;4.03;;;;;;;;;;4981179;28;20524;-57
2022/09/23 14:40:05;;;;;;;5.40;3.70;;;;;;;;;;4982400;28;20992;-56
2022/09/23 14:42:31;;;;;;;5.93;4.17;;;;;;;;;;4976112;28;20456;-58
2022/09/23 14:44:57;;;;;;;5.37;3.60;;;;;;;;;;4979183;28;20439;-56
2022/09/23 14:47:23;;;;;;;5.47;4.63;;;;;;;;;;4979866;28;20437;-57
2022/09/23 14:50:35;;;;;;;6.03;4.13;;;;;;;;;;4983039;28;20448;-57
2022/09/23 14:52:35;;;;;;;6.60;4.70;;;;;;;;;;4990551;28;20493;-57
2022/09/23 14:55:01;;;;;;;7.23;4.30;;;;;;;;;;4978731;28;20430;-57
2022/09/23 14:57:44;;;;;;;4.10;3.70;;;;;;;;;;4994953;28;20485;-59
2022/09/23 15:00:18;;;;;;;5.97;4.03;;;;;;;;;;4987335;28;20427;-57
2022/09/23 15:02:45;;;;;;;6.40;4.40;;;;;;;;;;4982752;28;20451;-58
2022/09/23 15:05:15;;;;;;;7.53;4.53;;;;;;;;;;4978636;28;20449;-57
2022/09/23 15:08:01;;;;;;;5.03;4.53;;;;;;;;;;4973322;28;20464;-59
2022/09/23 15:10:31;;;;;;;5.60;4.77;;;;;;;;;;4988447;28;20429;-57
2022/09/23 15:13:15;;;;;;;5.30;3.77;;;;;;;;;;4975309;28;20547;-56
2022/09/23 15:19:12;;;;;;;4.70;4.30;;;;;;;;;;4981503;28;20440;-60
2022/09/23 15:21:46;;;;;;;5.87;5.20;;;;;;;;;;4985199;28;20503;-59
2022/09/23 15:24:34;;;;;;;8.40;5.33;;;;;;;;;;4978890;28;20469;-59
2022/09/23 15:27:01;;;;;;;6.70;4.77;;;;;;;;;;4976125;28;20434;-57
2022/09/23 15:29:27;;;;;;;5.40;4.30;;;;;;;;;;4975619;28;20452;-57
2022/09/23 15:32:23;;;;;;;6.87;5.00;;;;;;;;;;4976085;28;20441;-58
2022/09/23 15:34:50;;;;;;;5.73;4.30;;;;;;;;;;4948875;28;20472;-58
2022/09/23 15:37:16;;;;;;;6.30;4.77;;;;;;;;;;4976886;28;20425;-56
2022/09/23 15:39:42;;;;;;;5.47;3.93;;;;;;;;;;4973007;28;21129;-56
2022/09/23 15:42:09;;;;;;;6.47;3.60;;;;;;;;;;4966137;28;21307;-58
2022/09/23 15:44:35;;;;;;;5.33;4.10;;;;;;;;;;4958108;28;20484;-57
2022/09/23 15:47:01;;;;;;;6.83;4.17;;;;;;;;;;4976356;28;20429;-56
2022/09/23 15:49:37;;;;;;;3.83;3.23;;;;;;;;;;4978419;28;20455;-57
2022/09/23 15:52:04;;;;;;;6.00;3.60;;;;;;;;;;4980692;28;20477;-57
2022/09/23 15:54:31;;;;;;;4.83;3.80;;;;;;;;;;4974119;28;20488;-58